Terminal Aerodrome Forecast
Issued by NWS

Home | Current Version | Previous Version | Text Only | Print | Product List | Glossary On
Versions: 1 2 3 4 5 6 7 8 9 10 11 12 13 14 15 16 17 18 19 20 21 22 23 24
614
FTAK31 PANC 131744
TAFAHO
TAF
PAHO 131744Z 1318/1418 05007KT P6SM VCSH SCT030 BKN045
     FM140100 05013KT P6SM VCSH BKN050
     FM141700 05006KT P6SM -SHRA BKN050=

USA.gov is the U.S. government's official web portal to all federal, state and local government web resources and services.